Time;durP1;ratioP1;P1;durP2;ratioP2;P2;SDS_P1;SDS_P2;PMS_P1;PMS_P2;Temp;Humidity;BMP_temperature;BMP_pressure;BME280_temperature;BME280_humidity;BME280_pressure;Samples;Min_cycle;Max_cycle;Signal;HPM_P1;HPM_P2
2022/12/19 00:06:58;;;;;;;48.80;29.13;;;;;2.30;99955.00;;;;16765374;28;20785;-47
2022/12/19 00:15:00;;;;;;;48.07;28.20;;;;;2.60;99966.00;;;;16779619;28;20225;-47
2022/12/19 00:23:04;;;;;;;43.10;25.97;;;;;2.80;99966.00;;;;16738177;28;20226;-46
2022/12/19 00:31:07;;;;;;;43.67;25.87;;;;;2.80;99960.00;;;;16728934;28;20256;-46
2022/12/19 00:39:11;;;;;;;48.13;28.00;;;;;2.70;99968.00;;;;16713798;28;20332;-47
2022/12/19 00:47:14;;;;;;;41.10;25.27;;;;;2.60;99946.00;;;;16747600;28;20263;-47
2022/12/19 00:55:18;;;;;;;43.43;26.50;;;;;2.50;99939.00;;;;16776292;28;20302;-47
2022/12/19 01:03:20;;;;;;;47.53;26.87;;;;;2.40;99937.00;;;;16745045;28;20642;-47
2022/12/19 01:19:41;;;;;;;51.03;29.40;;;;;2.30;99904.00;;;;16736797;28;20236;-47
2022/12/19 01:27:46;;;;;;;48.47;30.27;;;;;2.20;99912.00;;;;16756018;28;20226;-46
2022/12/19 01:35:48;;;;;;;49.03;29.67;;;;;2.50;99907.00;;;;16753405;28;20221;-46
2022/12/19 01:43:58;;;;;;;50.07;29.60;;;;;2.50;99894.00;;;;16770114;28;20319;-47
2022/12/19 01:52:03;;;;;;;55.13;36.00;;;;;2.30;99893.00;;;;16753807;28;20249;-46
2022/12/19 02:00:09;;;;;;;49.10;31.33;;;;;2.70;99871.00;;;;16742720;28;20242;-47
2022/12/19 02:08:14;;;;;;;48.27;30.90;;;;;2.80;99847.00;;;;16762898;28;20221;-47
2022/12/19 02:16:26;;;;;;;49.47;31.47;;;;;2.70;99857.00;;;;16752995;28;20225;-47
2022/12/19 02:24:55;;;;;;;52.50;31.17;;;;;2.90;99856.00;;;;16733565;28;20217;-47
2022/12/19 02:33:02;;;;;;;51.77;35.43;;;;;2.60;99868.00;;;;16729230;28;20572;-47
2022/12/19 02:50:38;;;;;;;44.10;29.40;;;;;2.70;99850.00;;;;16740830;28;20193;-47
2022/12/19 02:58:50;;;;;;;46.37;31.03;;;;;3.00;99838.00;;;;16724322;28;20733;-46
2022/12/19 03:06:57;;;;;;;47.97;29.80;;;;;2.90;99862.00;;;;16737145;28;20221;-47
2022/12/19 03:15:00;;;;;;;48.03;31.17;;;;;2.90;99831.00;;;;16726250;28;20237;-47
2022/12/19 03:23:05;;;;;;;47.30;28.97;;;;;2.90;99849.00;;;;16729342;28;20229;-47
2022/12/19 03:31:08;;;;;;;51.00;28.00;;;;;3.00;99863.00;;;;16746827;28;20202;-47
2022/12/19 03:39:13;;;;;;;46.60;28.20;;;;;3.20;99868.00;;;;16763243;28;20229;-47
2022/12/19 03:47:20;;;;;;;54.40;27.73;;;;;3.40;99874.00;;;;16758202;28;20759;-47
2022/12/19 03:55:30;;;;;;;52.67;28.77;;;;;3.00;99863.00;;;;16767009;28;20589;-47
2022/12/19 04:03:33;;;;;;;52.03;28.57;;;;;3.20;99867.00;;;;16768824;28;20861;-47
2022/12/19 04:11:40;;;;;;;45.83;24.70;;;;;3.20;99862.00;;;;16779800;28;20212;-48
2022/12/19 04:19:47;;;;;;;44.13;25.87;;;;;3.20;99878.00;;;;16774457;28;20217;-47
2022/12/19 04:27:57;;;;;;;45.93;24.27;;;;;3.40;99877.00;;;;16765329;28;20240;-48
2022/12/19 04:36:00;;;;;;;52.03;26.90;;;;;3.40;99879.00;;;;16748241;28;20244;-47
2022/12/19 04:44:04;;;;;;;46.00;27.00;;;;;3.40;99877.00;;;;16772251;28;20708;-47
2022/12/19 04:52:07;;;;;;;48.80;24.47;;;;;3.60;99876.00;;;;16777716;28;20316;-47
2022/12/19 05:00:12;;;;;;;46.83;26.60;;;;;3.50;99862.00;;;;16741280;28;20354;-47
2022/12/19 05:08:15;;;;;;;49.80;27.57;;;;;3.60;99865.00;;;;16769529;28;20298;-47
2022/12/19 05:16:19;;;;;;;49.97;28.50;;;;;3.80;99836.00;;;;16776927;28;20225;-47
2022/12/19 05:24:21;;;;;;;48.37;27.50;;;;;3.70;99826.00;;;;16748430;28;20228;-47
2022/12/19 05:32:25;;;;;;;51.33;27.40;;;;;4.10;99826.00;;;;16760353;28;20218;-47
2022/12/19 05:40:28;;;;;;;50.37;27.20;;;;;4.30;99830.00;;;;16742971;28;20264;-47
2022/12/19 05:48:31;;;;;;;45.40;25.27;;;;;4.40;99832.00;;;;16734505;28;20245;-47
2022/12/19 05:56:34;;;;;;;41.87;25.20;;;;;4.30;99826.00;;;;16741655;28;20243;-47
2022/12/19 06:04:38;;;;;;;47.33;25.87;;;;;4.30;99813.00;;;;16729690;28;20591;-47
2022/12/19 06:12:40;;;;;;;67.00;32.27;;;;;4.20;99805.00;;;;16739675;28;20221;-47
2022/12/19 06:20:44;;;;;;;50.90;27.63;;;;;4.40;99795.00;;;;16727013;28;20221;-47
2022/12/19 06:28:47;;;;;;;52.43;29.27;;;;;4.20;99803.00;;;;16747151;28;20209;-47
2022/12/19 06:36:50;;;;;;;47.20;27.53;;;;;4.70;99809.00;;;;16752881;28;20217;-47
2022/12/19 06:44:56;;;;;;;45.27;27.70;;;;;4.90;99797.00;;;;16726179;28;20226;-47
2022/12/19 06:53:00;;;;;;;50.13;28.83;;;;;4.90;99789.00;;;;16704754;28;20219;-47
2022/12/19 07:01:02;;;;;;;45.87;27.53;;;;;5.20;99783.00;;;;16690877;28;20216;-47
2022/12/19 07:09:06;;;;;;;54.17;28.93;;;;;5.00;99788.00;;;;16729582;28;20229;-47
2022/12/19 07:17:08;;;;;;;47.20;29.43;;;;;4.70;99789.00;;;;16740853;28;20644;-46
2022/12/19 07:25:12;;;;;;;52.60;28.70;;;;;4.90;99787.00;;;;16748318;28;20792;-46
2022/12/19 07:33:15;;;;;;;52.03;28.20;;;;;4.90;99783.00;;;;16730537;28;20218;-47
2022/12/19 07:41:19;;;;;;;47.17;26.87;;;;;5.10;99788.00;;;;16747689;28;20231;-47
2022/12/19 07:49:21;;;;;;;50.50;27.13;;;;;4.80;99801.00;;;;16751229;28;20226;-46
2022/12/19 07:57:25;;;;;;;47.23;27.90;;;;;4.70;99802.00;;;;16759160;28;20222;-46
2022/12/19 08:05:27;;;;;;;60.83;30.13;;;;;4.90;99789.00;;;;16733411;28;20704;-47
2022/12/19 08:13:31;;;;;;;55.93;29.30;;;;;5.20;99788.00;;;;16727658;28;20219;-47
2022/12/19 08:21:34;;;;;;;46.47;25.77;;;;;5.30;99797.00;;;;16740920;28;20227;-46
2022/12/19 08:29:38;;;;;;;52.77;30.10;;;;;5.10;99806.00;;;;16726873;28;20214;-46
2022/12/19 08:37:40;;;;;;;45.53;25.97;;;;;5.40;99807.00;;;;16735652;28;20215;-46
2022/12/19 08:45:44;;;;;;;54.93;28.70;;;;;5.10;99804.00;;;;16716316;28;20363;-46
2022/12/19 08:53:47;;;;;;;56.03;30.80;;;;;5.40;99795.00;;;;16743551;28;20209;-47
2022/12/19 09:01:51;;;;;;;50.60;27.00;;;;;5.50;99801.00;;;;16753498;28;20230;-47
2022/12/19 09:09:53;;;;;;;51.80;27.40;;;;;5.50;99791.00;;;;16732338;28;20200;-47
2022/12/19 09:17:58;;;;;;;66.73;37.23;;;;;5.30;99783.00;;;;16718998;28;20234;-47
2022/12/19 09:26:03;;;;;;;50.27;28.57;;;;;5.60;99784.00;;;;16724838;28;21636;-47
2022/12/19 09:34:07;;;;;;;53.17;28.40;;;;;5.90;99783.00;;;;16731274;28;20231;-47
2022/12/19 09:42:43;;;;;;;54.47;31.27;;;;;6.00;99778.00;;;;16738760;28;20333;-47
2022/12/19 09:50:52;;;;;;;52.57;31.27;;;;;6.10;99777.00;;;;16721847;28;20226;-46
2022/12/19 09:58:58;;;;;;;51.70;28.60;;;;;6.00;99779.00;;;;16711506;28;20302;-47
2022/12/19 10:07:02;;;;;;;45.87;28.67;;;;;6.80;99749.00;;;;16739463;28;20229;-47
2022/12/19 10:15:08;;;;;;;48.17;27.07;;;;;7.10;99740.00;;;;16734674;28;20230;-47
2022/12/19 10:23:30;;;;;;;44.33;26.80;;;;;7.00;99720.00;;;;16726777;28;20220;-47
2022/12/19 10:31:36;;;;;;;49.27;27.53;;;;;7.00;99711.00;;;;16739847;28;20545;-46
2022/12/19 10:39:50;;;;;;;48.93;30.70;;;;;6.80;99709.00;;;;16743402;28;20304;-47
2022/12/19 10:47:58;;;;;;;50.13;32.80;;;;;6.80;99689.00;;;;16716797;28;20575;-47
2022/12/19 10:56:09;;;;;;;49.57;32.13;;;;;6.90;99701.00;;;;16712647;28;20854;-47
2022/12/19 11:04:20;;;;;;;49.67;33.30;;;;;6.50;99702.00;;;;16700387;28;20255;-46
2022/12/19 11:12:27;;;;;;;49.63;33.97;;;;;6.90;99671.00;;;;16752224;28;20229;-47
2022/12/19 11:20:29;;;;;;;39.33;27.90;;;;;7.30;99682.00;;;;16762300;28;20228;-47
2022/12/19 11:28:36;;;;;;;40.20;31.00;;;;;7.50;99671.00;;;;16775258;28;20220;-46
2022/12/19 11:36:41;;;;;;;43.63;31.67;;;;;8.20;99641.00;;;;16783886;28;20208;-47
2022/12/19 11:44:50;;;;;;;43.43;31.23;;;;;8.20;99620.00;;;;16781259;28;20278;-47
2022/12/19 11:52:56;;;;;;;46.73;31.67;;;;;7.90;99615.00;;;;16785043;28;20228;-46
2022/12/19 12:01:08;;;;;;;38.63;28.73;;;;;8.30;99600.00;;;;16783295;28;20823;-46
2022/12/19 12:09:18;;;;;;;36.33;27.33;;;;;8.60;99613.00;;;;16784435;28;20225;-47
2022/12/19 12:17:35;;;;;;;38.83;27.60;;;;;8.90;99594.00;;;;16763865;28;20629;-46
2022/12/19 12:25:51;;;;;;;39.63;28.73;;;;;8.50;99604.00;;;;16765155;28;20322;-47
2022/12/19 12:34:03;;;;;;;43.50;31.97;;;;;8.10;99583.00;;;;16762565;28;20263;-47
2022/12/19 12:42:13;;;;;;;40.80;29.27;;;;;8.10;99585.00;;;;16766150;28;20233;-46
2022/12/19 12:50:19;;;;;;;42.83;29.63;;;;;8.10;99569.00;;;;16752489;28;20204;-46
2022/12/19 12:58:44;;;;;;;43.40;29.10;;;;;8.10;99577.00;;;;16776178;28;20221;-47
2022/12/19 13:15:33;;;;;;;47.80;33.70;;;;;8.10;99551.00;;;;16786862;27;20723;-46
2022/12/19 13:23:46;;;;;;;50.10;35.43;;;;;8.00;99562.00;;;;16762320;28;20243;-47
2022/12/19 13:32:09;;;;;;;46.13;33.03;;;;;8.40;99563.00;;;;16761880;28;20232;-46
2022/12/19 13:40:15;;;;;;;48.83;35.40;;;;;8.20;99560.00;;;;16764266;28;20574;-47
2022/12/19 13:48:26;;;;;;;53.47;38.43;;;;;8.00;99556.00;;;;16765090;28;20230;-46
2022/12/19 13:56:31;;;;;;;51.30;37.63;;;;;7.90;99568.00;;;;16755166;28;20729;-46
2022/12/19 14:04:34;;;;;;;48.60;36.07;;;;;8.10;99562.00;;;;16753594;28;20224;-47
2022/12/19 14:21:17;;;;;;;54.13;38.30;;;;;8.10;99578.00;;;;16743048;28;20207;-47
2022/12/19 14:29:23;;;;;;;40.77;31.17;;;;;8.40;99576.00;;;;16704484;28;20228;-47
2022/12/19 14:37:31;;;;;;;46.00;32.97;;;;;8.00;99577.00;;;;16711671;28;20213;-47
2022/12/19 14:45:36;;;;;;;42.83;32.17;;;;;8.30;99585.00;;;;16711842;28;20218;-47
2022/12/19 14:54:01;;;;;;;43.53;35.27;;;;;7.80;99567.00;;;;16713329;28;20234;-47
2022/12/19 15:02:15;;;;;;;44.30;30.57;;;;;8.20;99576.00;;;;16703290;28;20194;-46
2022/12/19 15:10:21;;;;;;;39.40;29.43;;;;;8.20;99580.00;;;;16700555;28;20706;-46
2022/12/19 15:18:27;;;;;;;45.33;33.80;;;;;8.40;99578.00;;;;16684227;28;20296;-47
2022/12/19 15:26:36;;;;;;;39.60;29.90;;;;;8.40;99564.00;;;;16687733;28;20232;-47
2022/12/19 15:34:41;;;;;;;49.87;35.17;;;;;8.00;99569.00;;;;16686327;28;20236;-46
2022/12/19 15:42:47;;;;;;;39.20;29.17;;;;;8.50;99551.00;;;;16707177;28;20217;-47
2022/12/19 15:50:50;;;;;;;46.50;33.53;;;;;7.50;99579.00;;;;16707654;28;20225;-47
2022/12/19 15:58:56;;;;;;;40.53;31.40;;;;;6.90;99577.00;;;;16689921;28;20234;-47
2022/12/19 16:06:58;;;;;;;34.47;25.07;;;;;7.30;99561.00;;;;16689033;28;20227;-47
2022/12/19 16:15:02;;;;;;;33.90;26.60;;;;;5.90;99568.00;;;;16704417;28;20903;-47
2022/12/19 16:23:05;;;;;;;42.03;32.27;;;;;6.20;99582.00;;;;16703385;28;20225;-47
2022/12/19 16:31:16;;;;;;;37.63;27.73;;;;;6.90;99561.00;;;;16702431;28;20311;-47
2022/12/19 16:39:19;;;;;;;32.70;25.50;;;;;6.60;99543.00;;;;16700849;28;20223;-47
2022/12/19 16:47:23;;;;;;;41.90;30.67;;;;;6.50;99545.00;;;;16693773;28;20914;-47
2022/12/19 16:55:26;;;;;;;35.43;27.53;;;;;5.70;99565.00;;;;16668670;28;20606;-47
2022/12/19 17:03:34;;;;;;;48.77;31.83;;;;;7.40;99526.00;;;;16674961;28;20230;-47
2022/12/19 17:11:37;;;;;;;40.80;31.80;;;;;7.90;99536.00;;;;16679223;28;20631;-47
2022/12/19 17:19:43;;;;;;;36.97;29.60;;;;;8.30;99527.00;;;;16690040;28;20315;-46
2022/12/19 17:27:46;;;;;;;45.60;34.23;;;;;8.10;99523.00;;;;16691514;28;20225;-46
2022/12/19 17:35:50;;;;;;;47.90;31.70;;;;;8.00;99532.00;;;;16677223;28;20234;-46
2022/12/19 17:43:52;;;;;;;38.13;31.17;;;;;8.10;99547.00;;;;16682585;28;20716;-46
2022/12/19 17:51:57;;;;;;;43.50;30.83;;;;;7.70;99543.00;;;;16695526;28;20223;-46
2022/12/19 17:59:59;;;;;;;40.83;28.10;;;;;8.00;99546.00;;;;16699509;28;20690;-46
2022/12/19 18:08:06;;;;;;;42.00;30.40;;;;;7.40;99543.00;;;;16708669;28;20233;-46
2022/12/19 18:16:12;;;;;;;44.00;30.90;;;;;7.60;99531.00;;;;16712550;28;20252;-46
2022/12/19 18:24:16;;;;;;;42.97;29.87;;;;;7.90;99550.00;;;;16705913;28;20224;-47
2022/12/19 18:32:26;;;;;;;40.47;30.47;;;;;7.50;99544.00;;;;16710812;28;20235;-46
2022/12/19 18:40:30;;;;;;;38.97;29.97;;;;;7.70;99548.00;;;;16701069;28;20213;-46
2022/12/19 18:48:35;;;;;;;42.43;29.07;;;;;7.90;99548.00;;;;16706791;28;20225;-46
2022/12/19 18:56:40;;;;;;;38.23;26.87;;;;;8.10;99541.00;;;;16711019;28;20228;-46
2022/12/19 19:04:42;;;;;;;33.70;26.63;;;;;8.20;99536.00;;;;16703951;28;20236;-47
2022/12/19 19:12:47;;;;;;;41.17;31.27;;;;;8.40;99539.00;;;;16695557;28;20267;-47
2022/12/19 19:20:50;;;;;;;31.63;24.43;;;;;8.60;99528.00;;;;16705821;28;20209;-47
2022/12/19 19:28:54;;;;;;;34.07;25.10;;;;;8.60;99514.00;;;;16703149;28;20706;-47
2022/12/19 19:36:59;;;;;;;32.57;24.00;;;;;8.40;99519.00;;;;16707142;28;20233;-47
2022/12/19 19:45:02;;;;;;;34.70;25.60;;;;;8.20;99516.00;;;;16702469;28;20224;-47
2022/12/19 19:53:05;;;;;;;35.97;26.17;;;;;8.00;99521.00;;;;16703126;28;20237;-47
2022/12/19 20:01:10;;;;;;;36.67;25.07;;;;;8.00;99517.00;;;;16707904;28;20203;-47
2022/12/19 20:09:13;;;;;;;41.97;30.83;;;;;6.90;99523.00;;;;16705437;28;20224;-47
2022/12/19 20:17:17;;;;;;;45.10;33.93;;;;;7.00;99528.00;;;;16696034;28;20224;-47
2022/12/19 20:25:19;;;;;;;43.30;31.10;;;;;7.10;99529.00;;;;16698494;28;20266;-47
2022/12/19 20:33:23;;;;;;;45.63;32.17;;;;;6.90;99546.00;;;;16707734;28;20445;-46
2022/12/19 20:41:25;;;;;;;45.53;31.50;;;;;6.90;99554.00;;;;16702299;28;20205;-47
2022/12/19 20:49:30;;;;;;;47.67;33.27;;;;;6.80;99537.00;;;;16703475;28;20243;-47
2022/12/19 20:57:32;;;;;;;36.63;28.87;;;;;7.10;99537.00;;;;16694341;28;20730;-47
2022/12/19 21:05:36;;;;;;;36.80;29.77;;;;;7.00;99538.00;;;;16703747;28;20243;-46
2022/12/19 21:13:39;;;;;;;40.03;30.07;;;;;7.20;99544.00;;;;16701005;28;20760;-46
2022/12/19 21:21:43;;;;;;;38.40;30.37;;;;;7.10;99540.00;;;;16710610;28;20205;-47
2022/12/19 21:29:46;;;;;;;42.50;31.50;;;;;6.80;99550.00;;;;16698405;28;20238;-47
2022/12/19 21:37:50;;;;;;;41.00;30.77;;;;;6.70;99544.00;;;;16711299;28;20225;-46
2022/12/19 21:46:04;;;;;;;40.50;31.27;;;;;6.80;99545.00;;;;16716548;28;20806;-47
2022/12/19 21:54:08;;;;;;;39.23;28.80;;;;;6.90;99543.00;;;;16712517;28;20225;-47
2022/12/19 22:02:11;;;;;;;37.60;30.00;;;;;7.00;99555.00;;;;16709216;28;20221;-46
2022/12/19 22:10:15;;;;;;;39.87;29.60;;;;;7.20;99577.00;;;;16712561;28;20225;-47
2022/12/19 22:18:18;;;;;;;38.73;29.20;;;;;7.30;99563.00;;;;16720747;28;20598;-47
2022/12/19 22:26:23;;;;;;;35.83;28.10;;;;;7.70;99562.00;;;;16706926;28;20218;-47
2022/12/19 22:34:25;;;;;;;37.03;27.37;;;;;7.50;99555.00;;;;16721455;28;20232;-47
2022/12/19 22:42:29;;;;;;;30.77;24.60;;;;;7.10;99562.00;;;;16714241;28;20238;-47
2022/12/19 22:50:31;;;;;;;25.80;21.43;;;;;7.00;99561.00;;;;16720642;28;20232;-47
2022/12/19 22:58:36;;;;;;;45.70;28.87;;;;;7.50;99550.00;;;;16720187;28;20231;-46
2022/12/19 23:06:39;;;;;;;32.60;27.33;;;;;7.40;99539.00;;;;16692220;28;20236;-47
2022/12/19 23:14:43;;;;;;;27.67;22.83;;;;;7.60;99533.00;;;;16700817;28;20218;-47
2022/12/19 23:22:45;;;;;;;35.60;29.23;;;;;7.40;99531.00;;;;16703801;22;20243;-80
2022/12/19 23:30:49;;;;;;;32.10;25.53;;;;;7.00;99532.00;;;;16629775;28;20225;-78
2022/12/19 23:38:53;;;;;;;38.10;29.57;;;;;7.20;99523.00;;;;16675015;28;20558;-79
2022/12/19 23:46:57;;;;;;;35.23;26.20;;;;;7.20;99537.00;;;;16670238;28;20249;-79
2022/12/19 23:54:59;;;;;;;29.40;25.50;;;;;6.90;99528.00;;;;16640911;28;20296;-78
